Republic, Michigan
Current Conditions -  °F | °C
As of 4:47 PM on Sunday 25 Jan 2015 (Local Time) from KSAW Reporting Station
Light Snow Light Snow  
Wind Chill:   Ceiling: 2200
Heat Index: 16°   Visibility: 7mi
Dew Point: 10°   Wind: 5mph
Humidity: 79%   Direction: 30°NNE
Pressure: 30.03"   Gusts: NA
Location:  46.41°N, 87.98°W
Report Text: KSAW 252147Z 03004KT 7SM -SN OVC022 M09/M12 A3003
Loading
Personal Weather Stations






























Interactive Weather Map New forecast layout! Learn more

10-Day Weather Forecast

Advertisements
Track Severe Weather on mobile